sensor_id;sensor_type;location;lat;lon;timestamp;P1;durP1;ratioP1;P2;durP2;ratioP2
17890;SDS011;9071;48.220;14.480;2022-09-09T00:00:53;58.00;;;15.37;;
17890;SDS011;9071;48.220;14.480;2022-09-09T00:06:03;33.33;;;12.93;;
17890;SDS011;9071;48.220;14.480;2022-09-09T00:11:11;30.83;;;13.63;;
17890;SDS011;9071;48.220;14.480;2022-09-09T00:16:17;28.93;;;12.83;;
17890;SDS011;9071;48.220;14.480;2022-09-09T00:21:26;111.43;;;16.63;;
17890;SDS011;9071;48.220;14.480;2022-09-09T00:26:34;94.30;;;15.90;;
17890;SDS011;9071;48.220;14.480;2022-09-09T00:31:40;66.37;;;13.63;;
17890;SDS011;9071;48.220;14.480;2022-09-09T00:36:44;51.20;;;13.70;;
17890;SDS011;9071;48.220;14.480;2022-09-09T00:41:51;60.80;;;13.83;;
17890;SDS011;9071;48.220;14.480;2022-09-09T00:47:18;189.57;;;18.07;;
17890;SDS011;9071;48.220;14.480;2022-09-09T00:52:43;94.90;;;14.73;;
17890;SDS011;9071;48.220;14.480;2022-09-09T00:57:50;78.37;;;15.10;;
17890;SDS011;9071;48.220;14.480;2022-09-09T01:03:02;184.63;;;17.83;;
17890;SDS011;9071;48.220;14.480;2022-09-09T01:08:28;60.97;;;12.00;;
17890;SDS011;9071;48.220;14.480;2022-09-09T01:13:43;131.33;;;14.20;;
17890;SDS011;9071;48.220;14.480;2022-09-09T01:18:51;86.83;;;13.60;;
17890;SDS011;9071;48.220;14.480;2022-09-09T01:24:08;96.23;;;14.67;;
17890;SDS011;9071;48.220;14.480;2022-09-09T01:29:21;63.80;;;12.33;;
17890;SDS011;9071;48.220;14.480;2022-09-09T01:34:25;58.20;;;12.60;;
17890;SDS011;9071;48.220;14.480;2022-09-09T01:39:29;53.27;;;12.10;;
17890;SDS011;9071;48.220;14.480;2022-09-09T01:44:33;76.07;;;13.43;;
17890;SDS011;9071;48.220;14.480;2022-09-09T01:49:36;99.07;;;14.60;;
17890;SDS011;9071;48.220;14.480;2022-09-09T01:54:39;34.47;;;11.33;;
17890;SDS011;9071;48.220;14.480;2022-09-09T01:59:47;36.13;;;11.27;;
17890;SDS011;9071;48.220;14.480;2022-09-09T02:04:59;68.07;;;14.60;;
17890;SDS011;9071;48.220;14.480;2022-09-09T02:10:09;169.40;;;17.43;;
17890;SDS011;9071;48.220;14.480;2022-09-09T02:15:20;180.10;;;18.33;;
17890;SDS011;9071;48.220;14.480;2022-09-09T02:20:28;49.40;;;12.50;;
17890;SDS011;9071;48.220;14.480;2022-09-09T02:25:33;30.90;;;11.63;;
17890;SDS011;9071;48.220;14.480;2022-09-09T02:30:39;114.73;;;16.47;;
17890;SDS011;9071;48.220;14.480;2022-09-09T02:35:43;99.83;;;15.23;;
17890;SDS011;9071;48.220;14.480;2022-09-09T02:40:46;67.67;;;13.63;;
17890;SDS011;9071;48.220;14.480;2022-09-09T02:45:51;54.03;;;12.57;;
17890;SDS011;9071;48.220;14.480;2022-09-09T02:51:06;34.70;;;12.13;;
17890;SDS011;9071;48.220;14.480;2022-09-09T02:56:13;31.03;;;12.60;;
17890;SDS011;9071;48.220;14.480;2022-09-09T03:01:18;89.40;;;13.20;;
17890;SDS011;9071;48.220;14.480;2022-09-09T03:06:20;29.63;;;11.27;;
17890;SDS011;9071;48.220;14.480;2022-09-09T03:11:22;74.00;;;13.70;;
17890;SDS011;9071;48.220;14.480;2022-09-09T03:16:26;61.33;;;11.40;;
17890;SDS011;9071;48.220;14.480;2022-09-09T03:21:28;104.57;;;11.80;;
17890;SDS011;9071;48.220;14.480;2022-09-09T03:26:30;33.57;;;8.23;;
17890;SDS011;9071;48.220;14.480;2022-09-09T03:31:34;39.77;;;10.07;;
17890;SDS011;9071;48.220;14.480;2022-09-09T03:36:37;29.13;;;9.23;;
17890;SDS011;9071;48.220;14.480;2022-09-09T03:41:39;25.97;;;9.50;;
17890;SDS011;9071;48.220;14.480;2022-09-09T03:46:42;20.70;;;9.20;;
17890;SDS011;9071;48.220;14.480;2022-09-09T03:51:44;18.20;;;9.33;;
17890;SDS011;9071;48.220;14.480;2022-09-09T03:56:46;24.50;;;9.53;;
17890;SDS011;9071;48.220;14.480;2022-09-09T04:01:50;16.93;;;9.30;;
17890;SDS011;9071;48.220;14.480;2022-09-09T04:06:52;47.50;;;10.37;;
17890;SDS011;9071;48.220;14.480;2022-09-09T04:11:54;22.83;;;10.47;;
17890;SDS011;9071;48.220;14.480;2022-09-09T04:16:57;22.33;;;10.93;;
17890;SDS011;9071;48.220;14.480;2022-09-09T04:21:59;99.13;;;12.40;;
17890;SDS011;9071;48.220;14.480;2022-09-09T04:27:05;89.90;;;12.43;;
17890;SDS011;9071;48.220;14.480;2022-09-09T04:32:08;110.27;;;13.03;;
17890;SDS011;9071;48.220;14.480;2022-09-09T04:37:11;187.53;;;16.60;;
17890;SDS011;9071;48.220;14.480;2022-09-09T04:42:14;64.37;;;12.07;;
17890;SDS011;9071;48.220;14.480;2022-09-09T04:47:21;45.83;;;11.47;;
17890;SDS011;9071;48.220;14.480;2022-09-09T04:52:23;60.87;;;11.27;;
17890;SDS011;9071;48.220;14.480;2022-09-09T04:57:26;61.57;;;11.13;;
17890;SDS011;9071;48.220;14.480;2022-09-09T05:02:30;97.47;;;14.47;;
17890;SDS011;9071;48.220;14.480;2022-09-09T05:07:32;85.03;;;11.73;;
17890;SDS011;9071;48.220;14.480;2022-09-09T05:12:34;84.20;;;12.63;;
17890;SDS011;9071;48.220;14.480;2022-09-09T05:17:38;58.93;;;10.90;;
17890;SDS011;9071;48.220;14.480;2022-09-09T05:22:41;33.27;;;9.50;;
17890;SDS011;9071;48.220;14.480;2022-09-09T05:27:44;164.23;;;14.43;;
17890;SDS011;9071;48.220;14.480;2022-09-09T05:32:47;19.07;;;10.30;;
17890;SDS011;9071;48.220;14.480;2022-09-09T05:37:50;35.27;;;11.30;;
17890;SDS011;9071;48.220;14.480;2022-09-09T05:42:52;15.17;;;10.50;;
17890;SDS011;9071;48.220;14.480;2022-09-09T05:47:56;18.27;;;10.10;;
17890;SDS011;9071;48.220;14.480;2022-09-09T05:52:59;13.33;;;8.40;;
17890;SDS011;9071;48.220;14.480;2022-09-09T05:58:01;12.40;;;8.70;;
17890;SDS011;9071;48.220;14.480;2022-09-09T06:03:04;11.77;;;8.00;;
17890;SDS011;9071;48.220;14.480;2022-09-09T06:08:06;9.03;;;7.17;;
17890;SDS011;9071;48.220;14.480;2022-09-09T06:13:08;10.00;;;8.10;;
17890;SDS011;9071;48.220;14.480;2022-09-09T06:18:12;16.97;;;9.20;;
17890;SDS011;9071;48.220;14.480;2022-09-09T06:23:14;13.47;;;9.30;;
17890;SDS011;9071;48.220;14.480;2022-09-09T06:28:16;17.27;;;10.43;;
17890;SDS011;9071;48.220;14.480;2022-09-09T06:33:20;23.07;;;10.73;;
17890;SDS011;9071;48.220;14.480;2022-09-09T06:38:22;13.37;;;9.87;;
17890;SDS011;9071;48.220;14.480;2022-09-09T06:43:24;20.63;;;11.37;;
17890;SDS011;9071;48.220;14.480;2022-09-09T06:48:28;20.87;;;11.73;;
17890;SDS011;9071;48.220;14.480;2022-09-09T06:53:31;13.40;;;9.00;;
17890;SDS011;9071;48.220;14.480;2022-09-09T06:58:34;9.97;;;7.17;;
17890;SDS011;9071;48.220;14.480;2022-09-09T07:03:37;6.93;;;5.70;;
17890;SDS011;9071;48.220;14.480;2022-09-09T07:08:40;10.27;;;6.43;;
17890;SDS011;9071;48.220;14.480;2022-09-09T07:13:42;11.27;;;6.30;;
17890;SDS011;9071;48.220;14.480;2022-09-09T07:18:46;5.87;;;4.90;;
17890;SDS011;9071;48.220;14.480;2022-09-09T07:23:48;6.90;;;4.87;;
17890;SDS011;9071;48.220;14.480;2022-09-09T07:28:50;11.23;;;5.47;;
17890;SDS011;9071;48.220;14.480;2022-09-09T07:33:53;5.50;;;4.83;;
17890;SDS011;9071;48.220;14.480;2022-09-09T07:38:56;7.13;;;5.40;;
17890;SDS011;9071;48.220;14.480;2022-09-09T07:43:59;8.33;;;5.03;;
17890;SDS011;9071;48.220;14.480;2022-09-09T07:49:06;8.50;;;5.00;;
17890;SDS011;9071;48.220;14.480;2022-09-09T07:54:10;7.30;;;5.13;;
17890;SDS011;9071;48.220;14.480;2022-09-09T07:59:13;6.22;;;4.70;;
17890;SDS011;9071;48.220;14.480;2022-09-09T08:04:17;8.50;;;5.13;;
17890;SDS011;9071;48.220;14.480;2022-09-09T08:09:21;8.18;;;5.65;;
17890;SDS011;9071;48.220;14.480;2022-09-09T08:14:25;6.95;;;5.10;;
17890;SDS011;9071;48.220;14.480;2022-09-09T08:19:28;8.00;;;5.38;;
17890;SDS011;9071;48.220;14.480;2022-09-09T08:24:33;9.05;;;4.97;;
17890;SDS011;9071;48.220;14.480;2022-09-09T08:29:36;6.35;;;5.05;;
17890;SDS011;9071;48.220;14.480;2022-09-09T08:34:40;7.15;;;5.35;;
17890;SDS011;9071;48.220;14.480;2022-09-09T08:39:42;7.50;;;4.80;;
17890;SDS011;9071;48.220;14.480;2022-09-09T08:44:48;7.55;;;5.28;;
17890;SDS011;9071;48.220;14.480;2022-09-09T08:50:07;5.40;;;4.55;;
17890;SDS011;9071;48.220;14.480;2022-09-09T08:55:20;9.05;;;5.88;;
17890;SDS011;9071;48.220;14.480;2022-09-09T09:00:33;11.10;;;5.97;;
17890;SDS011;9071;48.220;14.480;2022-09-09T09:05:46;11.05;;;6.05;;
17890;SDS011;9071;48.220;14.480;2022-09-09T09:11:02;9.65;;;6.50;;
17890;SDS011;9071;48.220;14.480;2022-09-09T09:16:06;11.13;;;8.23;;
17890;SDS011;9071;48.220;14.480;2022-09-09T09:21:17;20.52;;;11.73;;
17890;SDS011;9071;48.220;14.480;2022-09-09T09:26:28;18.27;;;9.38;;
17890;SDS011;9071;48.220;14.480;2022-09-09T09:31:33;16.23;;;9.80;;
17890;SDS011;9071;48.220;14.480;2022-09-09T09:36:40;13.43;;;8.80;;
17890;SDS011;9071;48.220;14.480;2022-09-09T09:41:44;18.17;;;9.32;;
17890;SDS011;9071;48.220;14.480;2022-09-09T09:46:47;14.95;;;8.88;;
17890;SDS011;9071;48.220;14.480;2022-09-09T09:51:50;19.10;;;8.80;;
17890;SDS011;9071;48.220;14.480;2022-09-09T09:56:52;16.05;;;9.60;;
17890;SDS011;9071;48.220;14.480;2022-09-09T10:02:05;15.73;;;9.93;;
17890;SDS011;9071;48.220;14.480;2022-09-09T10:07:18;13.43;;;9.38;;
17890;SDS011;9071;48.220;14.480;2022-09-09T10:12:24;10.98;;;8.93;;
17890;SDS011;9071;48.220;14.480;2022-09-09T10:17:36;11.18;;;8.65;;
17890;SDS011;9071;48.220;14.480;2022-09-09T10:22:51;8.75;;;7.25;;
17890;SDS011;9071;48.220;14.480;2022-09-09T10:28:02;13.52;;;8.25;;
17890;SDS011;9071;48.220;14.480;2022-09-09T10:33:25;13.18;;;7.35;;
17890;SDS011;9071;48.220;14.480;2022-09-09T10:38:37;13.10;;;7.07;;
17890;SDS011;9071;48.220;14.480;2022-09-09T10:43:51;11.98;;;6.93;;
17890;SDS011;9071;48.220;14.480;2022-09-09T10:49:16;8.85;;;6.85;;
17890;SDS011;9071;48.220;14.480;2022-09-09T10:54:34;8.77;;;7.03;;
17890;SDS011;9071;48.220;14.480;2022-09-09T10:59:50;9.57;;;7.40;;
17890;SDS011;9071;48.220;14.480;2022-09-09T11:04:57;12.60;;;6.80;;
17890;SDS011;9071;48.220;14.480;2022-09-09T11:10:05;9.70;;;6.95;;
17890;SDS011;9071;48.220;14.480;2022-09-09T11:15:20;9.70;;;6.32;;
17890;SDS011;9071;48.220;14.480;2022-09-09T11:20:30;7.35;;;5.78;;
17890;SDS011;9071;48.220;14.480;2022-09-09T11:25:34;10.05;;;5.28;;
17890;SDS011;9071;48.220;14.480;2022-09-09T11:30:44;8.43;;;5.22;;
17890;SDS011;9071;48.220;14.480;2022-09-09T11:41:37;6.68;;;4.20;;
17890;SDS011;9071;48.220;14.480;2022-09-09T11:46:39;5.88;;;4.10;;
17890;SDS011;9071;48.220;14.480;2022-09-09T11:51:42;7.07;;;4.10;;
17890;SDS011;9071;48.220;14.480;2022-09-09T11:56:46;7.22;;;4.80;;
17890;SDS011;9071;48.220;14.480;2022-09-09T12:01:49;9.55;;;3.75;;
17890;SDS011;9071;48.220;14.480;2022-09-09T12:06:56;8.85;;;3.95;;
17890;SDS011;9071;48.220;14.480;2022-09-09T12:12:17;6.97;;;4.32;;
17890;SDS011;9071;48.220;14.480;2022-09-09T12:17:25;6.13;;;4.30;;
17890;SDS011;9071;48.220;14.480;2022-09-09T12:22:30;12.02;;;5.57;;
17890;SDS011;9071;48.220;14.480;2022-09-09T12:27:42;20.55;;;7.55;;
17890;SDS011;9071;48.220;14.480;2022-09-09T12:32:58;14.88;;;5.95;;
17890;SDS011;9071;48.220;14.480;2022-09-09T12:38:02;17.75;;;5.35;;
17890;SDS011;9071;48.220;14.480;2022-09-09T12:48:30;20.33;;;8.80;;
17890;SDS011;9071;48.220;14.480;2022-09-09T12:53:36;12.45;;;6.75;;
17890;SDS011;9071;48.220;14.480;2022-09-09T12:58:44;7.10;;;5.40;;
17890;SDS011;9071;48.220;14.480;2022-09-09T13:03:49;10.40;;;6.32;;
17890;SDS011;9071;48.220;14.480;2022-09-09T13:08:52;10.13;;;7.00;;
17890;SDS011;9071;48.220;14.480;2022-09-09T13:13:56;10.27;;;7.50;;
17890;SDS011;9071;48.220;14.480;2022-09-09T13:18:59;9.00;;;7.20;;
17890;SDS011;9071;48.220;14.480;2022-09-09T13:24:03;7.47;;;5.30;;
17890;SDS011;9071;48.220;14.480;2022-09-09T13:29:14;6.10;;;5.10;;
17890;SDS011;9071;48.220;14.480;2022-09-09T13:34:28;5.53;;;4.68;;
17890;SDS011;9071;48.220;14.480;2022-09-09T13:39:31;5.00;;;4.50;;
17890;SDS011;9071;48.220;14.480;2022-09-09T13:44:37;5.30;;;4.80;;
17890;SDS011;9071;48.220;14.480;2022-09-09T13:49:41;8.07;;;4.82;;
17890;SDS011;9071;48.220;14.480;2022-09-09T13:54:46;5.68;;;5.05;;
17890;SDS011;9071;48.220;14.480;2022-09-09T13:59:50;7.03;;;5.38;;
17890;SDS011;9071;48.220;14.480;2022-09-09T14:04:54;5.63;;;4.90;;
17890;SDS011;9071;48.220;14.480;2022-09-09T14:09:56;5.28;;;4.63;;
17890;SDS011;9071;48.220;14.480;2022-09-09T14:15:01;4.68;;;4.30;;
17890;SDS011;9071;48.220;14.480;2022-09-09T14:20:04;5.30;;;4.80;;
17890;SDS011;9071;48.220;14.480;2022-09-09T14:25:09;6.60;;;4.80;;
17890;SDS011;9071;48.220;14.480;2022-09-09T14:30:13;6.53;;;4.43;;
17890;SDS011;9071;48.220;14.480;2022-09-09T14:35:15;4.40;;;3.85;;
17890;SDS011;9071;48.220;14.480;2022-09-09T14:40:18;6.60;;;4.50;;
17890;SDS011;9071;48.220;14.480;2022-09-09T14:45:21;6.32;;;4.75;;
17890;SDS011;9071;48.220;14.480;2022-09-09T14:50:24;7.25;;;4.10;;
17890;SDS011;9071;48.220;14.480;2022-09-09T14:55:26;6.22;;;4.78;;
17890;SDS011;9071;48.220;14.480;2022-09-09T15:00:30;6.60;;;5.00;;
17890;SDS011;9071;48.220;14.480;2022-09-09T15:05:32;5.75;;;5.00;;
17890;SDS011;9071;48.220;14.480;2022-09-09T15:10:34;10.48;;;5.90;;
17890;SDS011;9071;48.220;14.480;2022-09-09T15:15:39;6.82;;;4.90;;
17890;SDS011;9071;48.220;14.480;2022-09-09T15:20:44;5.38;;;4.60;;
17890;SDS011;9071;48.220;14.480;2022-09-09T15:25:52;10.07;;;5.35;;
17890;SDS011;9071;48.220;14.480;2022-09-09T15:30:56;7.55;;;5.22;;
17890;SDS011;9071;48.220;14.480;2022-09-09T15:35:59;7.30;;;5.40;;
17890;SDS011;9071;48.220;14.480;2022-09-09T15:41:02;10.30;;;5.40;;
17890;SDS011;9071;48.220;14.480;2022-09-09T15:46:09;10.48;;;5.93;;
17890;SDS011;9071;48.220;14.480;2022-09-09T15:51:26;9.15;;;6.00;;
17890;SDS011;9071;48.220;14.480;2022-09-09T15:56:28;8.32;;;6.22;;
17890;SDS011;9071;48.220;14.480;2022-09-09T16:01:34;9.73;;;5.78;;
17890;SDS011;9071;48.220;14.480;2022-09-09T16:06:36;9.82;;;6.88;;
17890;SDS011;9071;48.220;14.480;2022-09-09T16:11:39;12.23;;;7.00;;
17890;SDS011;9071;48.220;14.480;2022-09-09T16:16:42;8.65;;;7.00;;
17890;SDS011;9071;48.220;14.480;2022-09-09T16:21:45;9.85;;;7.28;;
17890;SDS011;9071;48.220;14.480;2022-09-09T16:26:49;12.23;;;7.30;;
17890;SDS011;9071;48.220;14.480;2022-09-09T16:31:54;14.88;;;7.05;;
17890;SDS011;9071;48.220;14.480;2022-09-09T16:36:56;10.45;;;7.45;;
17890;SDS011;9071;48.220;14.480;2022-09-09T16:41:58;10.45;;;7.35;;
17890;SDS011;9071;48.220;14.480;2022-09-09T16:47:02;9.45;;;7.55;;
17890;SDS011;9071;48.220;14.480;2022-09-09T16:52:05;10.05;;;7.20;;
17890;SDS011;9071;48.220;14.480;2022-09-09T16:57:07;13.82;;;7.60;;
17890;SDS011;9071;48.220;14.480;2022-09-09T17:02:10;12.15;;;7.10;;
17890;SDS011;9071;48.220;14.480;2022-09-09T17:07:12;11.30;;;7.45;;
17890;SDS011;9071;48.220;14.480;2022-09-09T17:12:14;11.15;;;6.88;;
17890;SDS011;9071;48.220;14.480;2022-09-09T17:17:18;9.35;;;6.85;;
17890;SDS011;9071;48.220;14.480;2022-09-09T17:22:21;7.93;;;6.70;;
17890;SDS011;9071;48.220;14.480;2022-09-09T17:27:26;9.25;;;7.22;;
17890;SDS011;9071;48.220;14.480;2022-09-09T17:32:31;10.85;;;7.30;;
17890;SDS011;9071;48.220;14.480;2022-09-09T17:37:35;9.95;;;7.40;;
17890;SDS011;9071;48.220;14.480;2022-09-09T17:42:37;10.82;;;7.25;;
17890;SDS011;9071;48.220;14.480;2022-09-09T17:47:42;9.90;;;6.82;;
17890;SDS011;9071;48.220;14.480;2022-09-09T17:52:44;10.57;;;7.90;;
17890;SDS011;9071;48.220;14.480;2022-09-09T17:57:46;13.82;;;8.52;;
17890;SDS011;9071;48.220;14.480;2022-09-09T18:02:50;14.05;;;9.60;;
17890;SDS011;9071;48.220;14.480;2022-09-09T18:07:52;15.38;;;10.15;;
17890;SDS011;9071;48.220;14.480;2022-09-09T18:12:54;12.65;;;9.35;;
17890;SDS011;9071;48.220;14.480;2022-09-09T18:17:58;14.57;;;9.55;;
17890;SDS011;9071;48.220;14.480;2022-09-09T18:23:05;12.52;;;9.05;;
17890;SDS011;9071;48.220;14.480;2022-09-09T18:28:07;12.55;;;9.38;;
17890;SDS011;9071;48.220;14.480;2022-09-09T18:33:12;12.48;;;10.02;;
17890;SDS011;9071;48.220;14.480;2022-09-09T18:38:15;17.48;;;10.48;;
17890;SDS011;9071;48.220;14.480;2022-09-09T18:43:17;14.23;;;9.90;;
17890;SDS011;9071;48.220;14.480;2022-09-09T18:48:21;16.33;;;11.05;;
17890;SDS011;9071;48.220;14.480;2022-09-09T18:53:23;14.70;;;10.57;;
17890;SDS011;9071;48.220;14.480;2022-09-09T18:58:25;14.48;;;10.43;;
17890;SDS011;9071;48.220;14.480;2022-09-09T19:03:28;14.48;;;10.88;;
17890;SDS011;9071;48.220;14.480;2022-09-09T19:08:32;14.45;;;10.88;;
17890;SDS011;9071;48.220;14.480;2022-09-09T19:13:36;13.63;;;11.27;;
17890;SDS011;9071;48.220;14.480;2022-09-09T19:18:40;14.32;;;10.50;;
17890;SDS011;9071;48.220;14.480;2022-09-09T19:23:44;14.48;;;10.50;;
17890;SDS011;9071;48.220;14.480;2022-09-09T19:28:47;13.23;;;9.57;;
17890;SDS011;9071;48.220;14.480;2022-09-09T19:33:52;11.95;;;10.27;;
17890;SDS011;9071;48.220;14.480;2022-09-09T19:38:55;12.70;;;9.55;;
17890;SDS011;9071;48.220;14.480;2022-09-09T19:43:58;13.68;;;10.93;;
17890;SDS011;9071;48.220;14.480;2022-09-09T19:49:03;15.40;;;10.88;;
17890;SDS011;9071;48.220;14.480;2022-09-09T19:54:06;12.75;;;10.07;;
17890;SDS011;9071;48.220;14.480;2022-09-09T19:59:11;13.23;;;10.38;;
17890;SDS011;9071;48.220;14.480;2022-09-09T20:04:15;14.50;;;11.48;;
17890;SDS011;9071;48.220;14.480;2022-09-09T20:09:17;16.02;;;11.02;;
17890;SDS011;9071;48.220;14.480;2022-09-09T20:14:20;16.15;;;13.43;;
17890;SDS011;9071;48.220;14.480;2022-09-09T20:19:24;26.60;;;18.80;;
17890;SDS011;9071;48.220;14.480;2022-09-09T20:24:26;28.93;;;21.37;;
17890;SDS011;9071;48.220;14.480;2022-09-09T20:29:28;21.00;;;15.10;;
17890;SDS011;9071;48.220;14.480;2022-09-09T20:34:31;16.13;;;12.90;;
17890;SDS011;9071;48.220;14.480;2022-09-09T20:39:33;17.50;;;12.68;;
17890;SDS011;9071;48.220;14.480;2022-09-09T20:44:36;17.58;;;12.48;;
17890;SDS011;9071;48.220;14.480;2022-09-09T20:49:39;14.93;;;12.23;;
17890;SDS011;9071;48.220;14.480;2022-09-09T20:54:41;23.33;;;14.37;;
17890;SDS011;9071;48.220;14.480;2022-09-09T20:59:43;22.60;;;15.75;;
17890;SDS011;9071;48.220;14.480;2022-09-09T21:04:48;18.77;;;14.13;;
17890;SDS011;9071;48.220;14.480;2022-09-09T21:09:50;24.47;;;17.30;;
17890;SDS011;9071;48.220;14.480;2022-09-09T21:14:52;21.23;;;15.43;;
17890;SDS011;9071;48.220;14.480;2022-09-09T21:19:56;22.13;;;14.87;;
17890;SDS011;9071;48.220;14.480;2022-09-09T21:24:58;20.25;;;15.15;;
17890;SDS011;9071;48.220;14.480;2022-09-09T21:30:00;22.63;;;16.60;;
17890;SDS011;9071;48.220;14.480;2022-09-09T21:35:05;20.00;;;15.65;;
17890;SDS011;9071;48.220;14.480;2022-09-09T21:40:07;23.45;;;14.68;;
17890;SDS011;9071;48.220;14.480;2022-09-09T21:45:10;18.40;;;14.43;;
17890;SDS011;9071;48.220;14.480;2022-09-09T21:50:15;24.50;;;15.83;;
17890;SDS011;9071;48.220;14.480;2022-09-09T21:55:19;29.60;;;17.17;;
17890;SDS011;9071;48.220;14.480;2022-09-09T22:00:22;27.60;;;17.07;;
17890;SDS011;9071;48.220;14.480;2022-09-09T22:05:25;25.60;;;15.90;;
17890;SDS011;9071;48.220;14.480;2022-09-09T22:10:27;40.83;;;20.03;;
17890;SDS011;9071;48.220;14.480;2022-09-09T22:15:30;61.23;;;22.80;;
17890;SDS011;9071;48.220;14.480;2022-09-09T22:20:37;97.20;;;23.47;;
17890;SDS011;9071;48.220;14.480;2022-09-09T22:25:41;107.67;;;22.60;;
17890;SDS011;9071;48.220;14.480;2022-09-09T22:30:43;73.07;;;23.63;;
17890;SDS011;9071;48.220;14.480;2022-09-09T22:35:47;136.03;;;25.10;;
17890;SDS011;9071;48.220;14.480;2022-09-09T22:40:49;141.83;;;26.07;;
17890;SDS011;9071;48.220;14.480;2022-09-09T22:45:52;48.23;;;22.03;;
17890;SDS011;9071;48.220;14.480;2022-09-09T22:51:00;43.60;;;22.13;;
17890;SDS011;9071;48.220;14.480;2022-09-09T22:56:03;26.50;;;19.85;;
17890;SDS011;9071;48.220;14.480;2022-09-09T23:01:08;30.60;;;19.45;;
17890;SDS011;9071;48.220;14.480;2022-09-09T23:06:16;25.88;;;18.30;;
17890;SDS011;9071;48.220;14.480;2022-09-09T23:11:21;21.97;;;16.43;;
17890;SDS011;9071;48.220;14.480;2022-09-09T23:16:24;27.83;;;16.80;;
17890;SDS011;9071;48.220;14.480;2022-09-09T23:21:29;23.20;;;16.77;;
17890;SDS011;9071;48.220;14.480;2022-09-09T23:26:32;96.00;;;19.80;;
17890;SDS011;9071;48.220;14.480;2022-09-09T23:31:34;56.00;;;18.87;;
17890;SDS011;9071;48.220;14.480;2022-09-09T23:36:39;34.42;;;17.63;;
17890;SDS011;9071;48.220;14.480;2022-09-09T23:41:41;25.47;;;17.50;;
17890;SDS011;9071;48.220;14.480;2022-09-09T23:46:44;21.57;;;15.57;;
17890;SDS011;9071;48.220;14.480;2022-09-09T23:51:47;22.33;;;15.23;;
17890;SDS011;9071;48.220;14.480;2022-09-09T23:56:49;26.63;;;16.53;;
